WXM80 ListenWXM80 Stop

You find our weather info also at:

UK Metoffice

WeatherCloud

Weather Underground

Northeastern Weather Network

AWEKAS

Citizen Weather Observer Program (CWOP)

HAMweather, WeatherForYou, PWS Weather


Nearby METAR Reports

   
KFRG - Farmingdale, New York, USA
Distance from station: SSW 14 mi
Updated: Feb 25 2018 3:53 pm
Overcast  
Overcast  
   Wind: NNE 10.4 mph
Wind: NNE 10.4 mph
Temperature: 41°F
Wind Chill: 35.6°F
Dew Point: 39.2°F
Humidity: 93%
Barometer: 29.95 inHg
Clouds: Overcast
Visibility: 10 mi
Cloud details: Overcast 152 m
KFRG 252053Z 02009KT 10SM OVC005 05/04 A2995 RMK AO2 SLP143 60000 T00500039 53010
KISP - Islip, New York, USA
Distance from station: SE 15 mi
Updated: Feb 25 2018 3:56 pm
Mist, Overcast  
Mist, Overcast  
   Wind: NE 12.7 mph
Wind: NE 12.7 mph
Temperature: 41°F
Wind Chill: 33.8°F
Dew Point: 39.2°F
Humidity: 93%
Barometer: 29.93 inHg
Clouds: Overcast
Visibility: 2 mi
Cloud details: Overcast 122 m
KISP 252056Z 04011KT 2SM BR OVC004 05/04 A2993 RMK AO2 SFC VIS 6 SLP134 60002 T00500044 53001
KBDR - Bridgeport, Connecticut, USA
Distance from station: NNE 20 mi
Updated: Feb 25 2018 4:22 pm
Overcast  
Overcast  
   Wind: NNE 8.1 mph
Wind: NNE 8.1 mph
Temperature: 44.6°F
Wind Chill: 39.2°F
Dew Point: 42.8°F
Humidity: 93%
Barometer: 29.96 inHg
Clouds: Overcast
Visibility: 10 mi
Cloud details: Partly Cloudy 305 m,
Overcast 549 m
KBDR 252122Z 02007KT 10SM SCT010 OVC018 07/06 A2996 RMK AO2 T00720056
KHPN - White Plains, New York, USA
Distance from station: WNW 22 mi
Updated: Feb 25 2018 3:56 pm
Light Rain, Mostly Cloudy  
Light Rain, Mostly Cloudy  
   Wind: Calm
Wind: Calm
Temperature: 42.8°F
Dew Point: 39.2°F
Humidity: 87%
Barometer: 29.96 inHg
Clouds: Mostly Cloudy
Visibility: 8 mi
Cloud details: Mostly Cloudy 91 m
KHPN 252056Z 00000KT 8SM -RA BKN003 06/04 A2996 RMK AO2 SLP150 P0000 60000 T00560044 51007
KHWV - Shirley, New York, USA
Distance from station: ESE 25 mi
Updated: Feb 25 2018 3:56 pm
Mist, Overcast  
Mist, Overcast  
   Wind: North 10.4 mph<br />Gust to 10.4 mph
Wind: North 10.4 mph
Gust to 10.4 mph
Temperature: 41°F
Wind Chill: 35.6°F
Dew Point: 41°F
Humidity: 100%
Barometer: 29.94 inHg
Clouds: Overcast
Visibility: 4 mi
Cloud details: Overcast 91 m
KHWV 252056Z AUTO 01009G15KT 4SM BR OVC003 05/05 A2994 RMK AO2 SLP138 60004 T00500050 50009 $
KJFK - NYC/JFK Arpt, New York, USA
Distance from station: SW 30 mi
Updated: Feb 25 2018 3:51 pm
Overcast  
Overcast  
   Wind: North 11.5 mph
Wind: North 11.5 mph
Temperature: 42.8°F
Wind Chill: 37.4°F
Dew Point: 41°F
Humidity: 93%
Barometer: 29.99 inHg
Clouds: Overcast
Visibility: 10 mi
Cloud details: Overcast 183 m
KJFK 252051Z 35010KT 10SM OVC006 06/05 A2999 RMK AO2 PRESRR SLP154 60000 T00560050 53019
KLGA - NYC/La Guardia, New York, USA
Distance from station: WSW 30 mi
Updated: Feb 25 2018 3:51 pm
Mist, Overcast  
Mist, Overcast  
   Wind: NE 16.1 mph
Wind: NE 16.1 mph
Temperature: 42.8°F
Wind Chill: 35.6°F
Dew Point: 39.2°F
Humidity: 87%
Barometer: 29.99 inHg
Clouds: Overcast
Visibility: 3 mi
Cloud details: Overcast 152 m
KLGA 252051Z 04014KT 3SM BR OVC005 06/04 A2999 RMK AO2 SFC VIS 4 SLP154 60000 T00560039 53010
KDXR - Danbury, Connecticut, USA
Distance from station: NNW 32 mi
Updated: Feb 25 2018 3:53 pm
Overcast  
Overcast  
   Wind: ENE 4.6 mph
Wind: ENE 4.6 mph
Temperature: 42.8°F
Wind Chill: 39.2°F
Dew Point: 39.2°F
Humidity: 87%
Barometer: 29.97 inHg
Clouds: Overcast
Visibility: 10 mi
Cloud details: Overcast 183 m
KDXR 252053Z 06004KT 10SM OVC006 06/04 A2997 RMK AO2 CIG 005V010 SLP152 60001 T00560044 55001
KHVN - New Haven/Tweed, Connecticut, USA
Distance from station: NE 34 mi
Updated: Feb 25 2018 3:53 pm
Overcast  
Overcast  
   Wind: NNE 9.2 mph
Wind: NNE 9.2 mph
Temperature: 44.6°F
Wind Chill: 39.2°F
Dew Point: 42.8°F
Humidity: 93%
Barometer: 29.94 inHg
Clouds: Overcast
Visibility: 10 mi
Cloud details: Overcast 213 m
KHVN 252053Z 03008KT 10SM OVC007 07/06 A2994 RMK AO2 SLP138 60003 T00720056 58006
KNYC - NYC/Central Park, New York, USA
Distance from station: WSW 35 mi
Updated: Feb 25 2018 3:51 pm
Overcast  
Overcast  
   Wind: NE 9.2 mph
Wind: NE 9.2 mph
Temperature: 42.8°F
Wind Chill: 37.4°F
Dew Point: 39.2°F
Humidity: 87%
Barometer: 30.01 inHg
Clouds: Overcast
Visibility: 10 mi
Cloud details: Overcast 213 m
KNYC 252051Z AUTO 05008KT 10SM OVC007 06/04 A3001 RMK AO2 SLP154 60001 T00560044 53013 $
KFOK - Westhampton Beach, New York, USA
Distance from station: E 38 mi
Updated: Feb 25 2018 3:53 pm
Mist, Overcast  
Mist, Overcast  
   Wind: NNE 12.7 mph<br />Gust to 12.7 mph
Wind: NNE 12.7 mph
Gust to 12.7 mph
Temperature: 42.8°F
Wind Chill: 35.6°F
Dew Point: 42.8°F
Humidity: 100%
Barometer: 29.92 inHg
Clouds: Overcast
Visibility: 3 mi
Cloud details: Overcast 91 m
KFOK 252053Z 02011G18KT 3SM BR OVC003 06/06 A2992 RMK AO2 RAB02E12 SLP133 P0000 60004 T00560056 56003
KTEB - Teterboro, New Jersey, USA
Distance from station: W 38 mi
Updated: Feb 25 2018 3:51 pm
Mist, Overcast  
Mist, Overcast  
   Wind: NNE 4.6 mph
Wind: NNE 4.6 mph
Temperature: 44.6°F
Wind Chill: 42.8°F
Dew Point: 41°F
Humidity: 87%
Barometer: 29.98 inHg
Clouds: Overcast
Visibility: 5 mi
Cloud details: Overcast 183 m
KTEB 252051Z 02004KT 5SM BR OVC006 07/05 A2998 RMK AO2 SLP152 60000 T00670050 53019 $
KOXC - Oxford/Waterbury, Connecticut, USA
Distance from station: NNE 39 mi
Updated: Feb 25 2018 4:51 pm
Overcast  
Overcast  
   Wind: NE 6.9 mph
Wind: NE 6.9 mph
Temperature: 39.2°F
Wind Chill: 33.8°F
Dew Point: 37.4°F
Humidity: 93%
Barometer: 29.95 inHg
Clouds: Overcast
Visibility: 10 mi
Cloud details: Overcast 152 m
KOXC 252151Z 04006KT 10SM OVC005 04/03 A2995 RMK AO2 SLP157 T00440033
KEWR - Newark, New Jersey, USA
Distance from station: WSW 47 mi
Updated: Feb 25 2018 3:51 pm
Overcast  
Overcast  
   Wind: NNE 8.1 mph
Wind: NNE 8.1 mph
Temperature: 42.8°F
Wind Chill: 37.4°F
Dew Point: 42.8°F
Humidity: 100%
Barometer: 29.99 inHg
Clouds: Overcast
Visibility: 8 mi
Cloud details: Overcast 244 m
KEWR 252051Z 02007KT 8SM OVC008 06/06 A2999 RMK AO2 SLP154 60000 T00610056 53021 $
KMMK - Meriden, Connecticut, USA
Distance from station: NNE 48 mi
Updated: Feb 25 2018 3:53 pm
Overcast  
Overcast  
   Wind: North 9.2 mph
Wind: North 9.2 mph
Temperature: 41°F
Wind Chill: 35.6°F
Dew Point: 39.2°F
Humidity: 93%
Barometer: 29.97 inHg
Clouds: Overcast
Visibility: 8 mi
Cloud details: Overcast 183 m
KMMK 252053Z AUTO 01008KT 8SM OVC006 05/04 A2997 RMK AO2 RAE23 SLP149 P0001 60006 T00500039 56006

Script developed by  Saratoga-weather.org Adapted for the template by  Weerstation Leuven

Weather Terms: Warning - A warning is issued when a hazardous weather or hydrologic event is occurring, imminent or likely. A warning means weather conditions pose a threat to life or property. People in the path of the storm need to take protective action.